Bramble, Montserrat

3:50 AM AST on August 28, 2015 (GMT -0400)
V C Bird International | | Change Station
CLOSE
Current Station
Airport
Location: V.C. Bird,
Elevation: 46 ft
Nearby Weather Stations

Elev 46 ft 17.12 °N, 61.78 °W | Updated 50 minutes ago

Mostly Cloudy
Mostly Cloudy
81 °F
Feels Like 87 °F
N
8
Wind Variable Wind from East

Today
High -- | Low -- °F
--% Chance of Precip.
Yesterday
High -- | Low -- °F
Precip. -- in
5:54 AM 6:25 PM
Waxing Gibbous, 97% visible
Pressure 29.98 in
Visibility 6.2 miles
Clouds Scattered Clouds 1600 ft
Mostly Cloudy 3600 ft
Heat Index 87 °F
Dew Point 77 °F
Humidity 89%
Rainfall 0.00 in
Snow Depth Not available.
UV 0 out of 12
Pollen Not available.
Air Quality Not available.
Flu Activity Not available.
METAR TAPA 280700Z 10007KT 9999 SCT016 BKN036 27/25 Q1015
Pressure 29.98 in
Visibility 6.2 miles
Clouds Scattered Clouds 1600 ft
Mostly Cloudy 3600 ft
Heat Index 87 °F
Dew Point 77 °F
Humidity 89%
Rainfall 0.00 in
Snow Depth Not available.
UV 0 out of 12
Pollen Not available.
Air Quality Not available.
Flu Activity Not available.
METAR TAPA 280700Z 10007KT 9999 SCT016 BKN036 27/25 Q1015

10-Day Weather Forecast

×

Almanac

Astronomy

Aug. 28, 2015 Rise Set
Actual Time
Civil Twilight
Nautical Twilight
Astronomical Twilight
Moon
Length of Visible Light
Length of Day
Tomorrow will be .
, % of the Moon is Illuminated

Today's Extremes

Country Highs Country Lows

Community

WunderPhotos

Upload Photos

1,850,348 photos uploaded!

WunderBlogs® & News

Nearby

Air Quality

  Air Quality AQ Index Pollutant
Not available.

Snow Depth

Station Depth Elevation

Earthquake Activity

City Distance Mag. Time & Date
Minimum magnitude displayed is 2.5.

Coastal Water Temperatures

Place Temperature

Stations

Nearby Weather Stations

Station Location Temp. Windchill Dew Point Humidity Wind Precip. Elev Updated Type